Time;durP1;ratioP1;P1;durP2;ratioP2;P2;SDS_P1;SDS_P2;PMS_P1;PMS_P2;Temp;Humidity;BMP_temperature;BMP_pressure;BME280_temperature;BME280_humidity;BME280_pressure;Samples;Min_cycle;Max_cycle;Signal;HPM_P1;HPM_P2
2021/12/04 00:02:22;;;;;;;1999.90;999.90;;;;;;;6.85;100.00;98725.25;5094480;28;20093;-33
2021/12/04 00:04:51;;;;;;;1999.90;999.90;;;;;;;6.83;100.00;98741.38;5094663;28;20040;-33
2021/12/04 00:07:17;;;;;;;1999.90;999.90;;;;;;;6.64;100.00;98736.34;5094314;28;20055;-33
2021/12/04 00:09:47;;;;;;;1999.90;999.90;;;;;;;6.65;100.00;98734.47;5094353;28;20153;-34
2021/12/04 00:12:14;;;;;;;1999.90;999.90;;;;;;;6.64;100.00;98733.69;5093894;28;20047;-33
2021/12/04 00:14:41;;;;;;;1999.90;999.90;;;;;;;6.66;100.00;98746.69;5094139;28;20039;-33
2021/12/04 00:17:07;;;;;;;1999.90;999.90;;;;;;;6.53;100.00;98773.47;5094481;28;20097;-33
2021/12/04 00:19:33;;;;;;;;;;;;;;;6.40;100.00;98783.34;5094511;28;20020;-33
2021/12/04 00:21:59;;;;;;;1999.90;999.90;;;;;;;6.54;100.00;98769.78;5093916;28;19953;-33
2021/12/04 00:24:25;;;;;;;1999.90;999.90;;;;;;;6.59;100.00;98764.56;5093942;28;20496;-33
2021/12/04 00:26:53;;;;;;;1999.90;999.90;;;;;;;6.42;100.00;98807.72;5094001;28;20036;-33
2021/12/04 00:29:20;;;;;;;1999.90;999.90;;;;;;;6.49;100.00;98815.50;5093894;28;20078;-33
2021/12/04 00:31:50;;;;;;;1999.90;999.90;;;;;;;6.47;100.00;98834.28;5094482;28;20563;-33
2021/12/04 00:34:18;;;;;;;1999.90;999.90;;;;;;;6.51;100.00;98813.41;5093796;28;20028;-33
2021/12/04 00:50:07;;;;;;;1999.90;999.90;;;;;;;5.97;100.00;98745.00;5094141;28;20038;-33
2021/12/04 00:52:34;;;;;;;1999.90;999.90;;;;;;;5.89;100.00;98743.53;5093424;28;20032;-33
2021/12/04 00:55:01;;;;;;;1999.90;999.90;;;;;;;5.66;100.00;98744.41;5092164;28;20032;-33
2021/12/04 00:57:26;;;;;;;1999.90;999.90;;;;;;;5.55;100.00;98739.94;5093450;28;20027;-33
2021/12/04 00:59:52;;;;;;;1999.90;999.90;;;;;;;5.40;100.00;98740.44;5093367;28;20071;-33
2021/12/04 01:02:19;;;;;;;1999.90;999.90;;;;;;;5.33;100.00;98748.50;5093324;28;20059;-33
2021/12/04 01:04:45;;;;;;;1999.90;999.90;;;;;;;5.27;100.00;98754.72;5093216;28;20028;-33
2021/12/04 01:07:11;;;;;;;1999.90;999.90;;;;;;;5.24;100.00;98750.72;5093190;28;20078;-33
2021/12/04 01:09:37;;;;;;;1999.90;999.90;;;;;;;5.20;100.00;98744.28;5093450;28;20024;-33
2021/12/04 01:12:03;;;;;;;1999.90;999.90;;;;;;;5.15;100.00;98732.78;5092978;28;20055;-33
2021/12/04 01:14:31;;;;;;;1999.90;999.90;;;;;;;5.15;100.00;98728.31;5093007;28;20036;-33
2021/12/04 01:16:57;;;;;;;1999.90;999.90;;;;;;;5.06;100.00;98725.22;5092976;28;20024;-33
2021/12/04 01:19:23;;;;;;;1999.90;999.90;;;;;;;5.11;100.00;98711.34;5093065;28;20020;-33
2021/12/04 01:21:50;;;;;;;1999.90;999.90;;;;;;;5.03;100.00;98717.75;5092890;28;20031;-33
2021/12/04 01:24:16;;;;;;;1999.90;999.90;;;;;;;4.91;100.00;98711.69;5093179;28;20020;-33
2021/12/04 01:26:42;;;;;;;1999.90;999.90;;;;;;;4.90;100.00;98696.88;5093100;28;20101;-33
2021/12/04 01:29:07;;;;;;;1999.90;999.90;;;;;;;4.86;100.00;98691.28;5092797;28;20520;-33
2021/12/04 01:31:33;;;;;;;1999.90;999.90;;;;;;;4.83;100.00;98689.09;5092771;28;20031;-33
2021/12/04 01:33:59;;;;;;;1999.90;999.90;;;;;;;4.77;100.00;98689.19;5092169;28;20038;-34
2021/12/04 01:36:25;;;;;;;1999.90;999.90;;;;;;;4.82;100.00;98699.88;5092600;28;20403;-33
2021/12/04 01:38:52;;;;;;;1999.90;999.90;;;;;;;4.77;100.00;98713.75;5093426;28;20031;-34
2021/12/04 01:41:17;;;;;;;1999.90;999.90;;;;;;;4.82;100.00;98732.34;5092777;28;20020;-33
2021/12/04 01:43:44;;;;;;;1999.90;999.90;;;;;;;4.92;100.00;98745.00;5092863;28;20039;-34
2021/12/04 01:46:09;;;;;;;1999.90;999.90;;;;;;;4.94;100.00;98735.00;5092415;28;20024;-33
2021/12/04 01:48:35;;;;;;;1999.90;999.90;;;;;;;4.97;100.00;98720.53;5092732;28;20035;-33
2021/12/04 01:51:02;;;;;;;1999.90;999.90;;;;;;;4.93;100.00;98687.69;5092751;28;20028;-33
2021/12/04 01:53:28;;;;;;;;;;;;;;;4.81;100.00;98688.50;5092708;28;20435;-34
2021/12/04 01:55:55;;;;;;;1999.90;999.90;;;;;;;4.76;100.00;98703.44;5092277;28;19912;-34
2021/12/04 01:58:22;;;;;;;1999.90;999.90;;;;;;;4.87;100.00;98710.53;5092331;28;20044;-34
2021/12/04 02:00:48;;;;;;;1999.90;999.90;;;;;;;4.83;100.00;98719.94;5092238;28;20050;-33
2021/12/04 02:03:14;;;;;;;1999.90;999.90;;;;;;;4.97;100.00;98725.81;5092247;28;20020;-33
2021/12/04 02:05:41;;;;;;;1999.90;999.90;;;;;;;4.82;100.00;98729.72;5090977;28;20069;-34
2021/12/04 02:08:08;;;;;;;1999.90;999.90;;;;;;;4.77;100.00;98726.94;5092132;28;20016;-33
2021/12/04 02:10:35;;;;;;;1999.90;999.90;;;;;;;4.87;100.00;98723.75;5092249;28;20077;-34
2021/12/04 02:13:01;;;;;;;1999.90;999.90;;;;;;;4.99;100.00;98719.28;5091941;28;20042;-34
2021/12/04 02:15:27;;;;;;;1999.90;999.90;;;;;;;4.98;100.00;98716.88;5092035;28;20055;-34
2021/12/04 02:17:53;;;;;;;1999.90;999.90;;;;;;;5.06;100.00;98719.13;5092372;28;20063;-34
2021/12/04 02:20:22;;;;;;;1999.90;999.90;;;;;;;5.12;100.00;98706.84;5092003;28;20522;-34
2021/12/04 02:22:49;;;;;;;1999.90;999.90;;;;;;;5.12;100.00;98696.28;5092001;28;20035;-33
2021/12/04 02:25:16;;;;;;;1999.90;999.90;;;;;;;5.12;100.00;98691.78;5091829;28;20023;-33
2021/12/04 02:27:43;;;;;;;1999.90;999.90;;;;;;;5.04;100.00;98687.69;5092543;28;20396;-33
2021/12/04 02:30:13;;;;;;;1999.90;999.90;;;;;;;4.97;100.00;98681.72;5091927;28;20028;-33
2021/12/04 02:32:39;;;;;;;1999.90;999.90;;;;;;;4.84;100.00;98684.59;5092920;28;20495;-34
2021/12/04 02:35:07;;;;;;;1999.90;999.90;;;;;;;4.78;100.00;98680.25;5092100;28;20030;-34
2021/12/04 02:37:35;;;;;;;1999.90;999.90;;;;;;;4.71;100.00;98652.16;5091784;28;20380;-34
2021/12/04 02:40:03;;;;;;;1999.90;999.90;;;;;;;4.59;100.00;98651.34;5092153;28;20042;-33
2021/12/04 02:42:31;;;;;;;1999.90;999.90;;;;;;;4.51;100.00;98654.34;5091777;28;20069;-33
2021/12/04 02:44:58;;;;;;;1999.90;999.90;;;;;;;4.39;100.00;98649.06;5093279;28;20024;-33
2021/12/04 02:47:25;;;;;;;1999.90;999.90;;;;;;;4.25;100.00;98645.03;5095887;28;20092;-33
2021/12/04 02:49:51;;;;;;;1999.90;999.90;;;;;;;4.22;100.00;98645.50;5095813;28;20024;-33
2021/12/04 02:52:18;;;;;;;1999.90;999.90;;;;;;;4.23;100.00;98618.91;5095770;28;20024;-33
2021/12/04 02:54:43;;;;;;;;;;;;;;;4.08;100.00;98626.44;5096267;28;20032;-34
2021/12/04 02:57:12;;;;;;;1999.90;999.90;;;;;;;4.13;100.00;98608.13;5095645;28;19969;-34
2021/12/04 02:59:39;;;;;;;1999.90;999.90;;;;;;;4.04;100.00;98615.56;5095682;28;20028;-34
2021/12/04 03:02:16;;;;;;;1999.90;999.90;;;;;;;4.08;100.00;98622.00;5095916;28;20077;-34
2021/12/04 03:04:42;;;;;;;;;;;;;;;4.12;100.00;98640.78;5096073;28;20032;-34
2021/12/04 03:07:08;;;;;;;1999.90;999.90;;;;;;;4.08;100.00;98645.72;5095491;28;19981;-34
2021/12/04 03:09:35;;;;;;;1999.90;999.90;;;;;;;4.13;100.00;98651.09;5095511;28;20035;-34
2021/12/04 03:12:02;;;;;;;1999.90;999.90;;;;;;;4.22;100.00;98667.38;5095213;28;20052;-34
2021/12/04 03:14:28;;;;;;;1999.90;999.90;;;;;;;4.33;100.00;98676.34;5096131;28;20056;-34
2021/12/04 03:16:54;;;;;;;1999.90;999.90;;;;;;;4.33;100.00;98695.63;5095306;28;20024;-34
2021/12/04 03:19:19;;;;;;;1999.90;999.90;;;;;;;4.44;100.00;98720.41;5095631;28;20032;-34
2021/12/04 03:21:46;;;;;;;1999.90;999.90;;;;;;;4.62;100.00;98742.44;5095269;28;20403;-34
2021/12/04 03:24:14;;;;;;;1999.90;999.90;;;;;;;4.66;100.00;98736.47;5095661;28;20036;-34
2021/12/04 03:26:40;;;;;;;1999.90;999.90;;;;;;;4.81;100.00;98711.47;5095056;28;20035;-34
2021/12/04 03:29:12;;;;;;;1999.90;999.90;;;;;;;4.88;100.00;98681.28;5095118;28;20024;-34
2021/12/04 03:42:44;;;;;;;1999.90;999.90;;;;;;;4.47;100.00;98664.53;5086431;28;20040;-33
2021/12/04 03:45:10;;;;;;;1999.90;999.90;;;;;;;4.59;100.00;98690.13;5094665;28;20032;-34
2021/12/04 03:47:41;;;;;;;1999.90;999.90;;;;;;;4.52;100.00;98706.88;5094778;28;20119;-33
2021/12/04 03:50:07;;;;;;;1999.90;999.90;;;;;;;4.59;100.00;98706.75;5095014;28;20104;-34
2021/12/04 03:52:33;;;;;;;;;;;;;;;4.73;100.00;98715.25;5095330;28;20099;-34
2021/12/04 03:54:58;;;;;;;1999.90;999.90;;;;;;;4.75;100.00;98702.63;5094715;28;20403;-33
2021/12/04 03:57:24;;;;;;;1999.90;999.90;;;;;;;4.71;100.00;98698.84;5093619;28;20054;-33
2021/12/04 03:59:50;;;;;;;1999.90;999.90;;;;;;;4.68;100.00;98701.94;5094517;28;20081;-33
2021/12/04 04:02:17;;;;;;;1999.90;999.90;;;;;;;4.62;100.00;98702.88;5094519;28;20020;-34
2021/12/04 04:04:43;;;;;;;1999.90;999.90;;;;;;;4.54;100.00;98698.75;5095501;28;20452;-34
2021/12/04 04:07:09;;;;;;;1999.90;999.90;;;;;;;4.48;100.00;98691.75;5094338;28;20024;-34
2021/12/04 04:09:37;;;;;;;1999.90;999.90;;;;;;;4.54;100.00;98690.81;5094676;28;20148;-34
2021/12/04 04:12:03;;;;;;;1999.90;999.90;;;;;;;4.52;100.00;98684.94;5093922;28;20476;-34
2021/12/04 04:14:29;;;;;;;1999.90;999.90;;;;;;;4.36;100.00;98695.16;5094267;28;20028;-34
2021/12/04 04:16:57;;;;;;;1999.90;999.90;;;;;;;4.13;100.00;98661.63;5094458;28;20036;-34
2021/12/04 04:19:23;;;;;;;1999.90;999.90;;;;;;;3.98;100.00;98661.28;5093305;28;20162;-34
2021/12/04 04:21:55;;;;;;;1999.90;999.90;;;;;;;3.95;100.00;98623.00;5094455;28;20034;-33
2021/12/04 04:24:21;;;;;;;1999.90;999.90;;;;;;;3.67;100.00;98616.50;5094362;28;20055;-34
2021/12/04 04:26:47;;;;;;;1999.90;999.90;;;;;;;3.64;100.00;98624.03;5093974;28;20471;-34
2021/12/04 04:29:13;;;;;;;1999.90;999.90;;;;;;;3.70;100.00;98617.91;5093937;28;20039;-34
2021/12/04 04:31:47;;;;;;;;;;;;;;;3.69;100.00;98621.56;5094674;28;20032;-34
2021/12/04 04:34:22;;;;;;;1999.90;999.90;;;;;;;3.76;100.00;98632.81;5093858;28;19919;-34
2021/12/04 04:37:02;;;;;;;1999.90;999.90;;;;;;;3.71;100.00;98632.66;5094137;28;20052;-34
2021/12/04 05:11:41;;;;;;;1999.90;999.90;;;;;;;3.97;100.00;98591.13;5093273;28;20078;-34
2021/12/04 05:14:07;;;;;;;1999.90;999.90;;;;;;;4.05;100.00;98593.41;5093075;28;20040;-34
2021/12/04 05:16:59;;;;;;;1999.90;999.90;;;;;;;4.11;100.00;98607.53;5093176;28;20020;-34
2021/12/04 05:22:07;;;;;;;1999.90;999.90;;;;;;;4.24;100.00;98604.66;5093054;28;20133;-34
2021/12/04 05:24:32;;;;;;;1999.90;999.90;;;;;;;4.31;100.00;98607.19;5092827;28;20064;-34
2021/12/04 05:26:58;;;;;;;1999.90;999.90;;;;;;;4.43;100.00;98615.09;5092786;28;20028;-34
2021/12/04 05:29:24;;;;;;;1999.90;999.90;;;;;;;4.53;100.00;98620.59;5092854;28;20032;-34
2021/12/04 05:31:50;;;;;;;1999.90;999.90;;;;;;;4.60;100.00;98625.78;5093069;28;20024;-35
2021/12/04 05:34:16;;;;;;;1999.90;999.90;;;;;;;4.75;100.00;98635.84;5092698;28;20035;-34
2021/12/04 05:36:42;;;;;;;1999.90;999.90;;;;;;;4.88;100.00;98646.16;5092648;28;20024;-34
2021/12/04 05:39:09;;;;;;;1999.90;999.90;;;;;;;4.97;100.00;98657.16;5092634;28;20070;-35
2021/12/04 05:41:36;;;;;;;1999.90;999.90;;;;;;;5.04;100.00;98665.78;5092948;28;20089;-35
2021/12/04 05:44:06;;;;;;;1999.90;999.90;;;;;;;5.02;100.00;98657.25;5092487;28;20089;-35
2021/12/04 05:46:53;;;;;;;1999.90;999.90;;;;;;;5.13;100.00;98663.56;5092430;28;20059;-35
2021/12/04 05:49:25;;;;;;;1999.90;999.90;;;;;;;5.05;100.00;98665.53;5092459;28;20028;-35
2021/12/04 05:57:07;;;;;;;1999.90;999.90;;;;;;;4.69;100.00;98658.69;5093234;28;20456;-35
2021/12/04 05:59:33;;;;;;;1999.90;999.90;;;;;;;4.67;100.00;98653.66;5092261;28;20053;-35
2021/12/04 06:01:59;;;;;;;1999.90;999.90;;;;;;;4.63;100.00;98639.31;5092284;28;20036;-34
2021/12/04 06:04:25;;;;;;;1999.90;999.90;;;;;;;4.62;100.00;98650.88;5092213;28;20036;-35
2021/12/04 06:06:51;;;;;;;1999.90;999.90;;;;;;;4.67;100.00;98643.09;5092472;28;20039;-34
2021/12/04 06:09:17;;;;;;;1999.90;999.90;;;;;;;4.74;100.00;98658.78;5092096;28;20415;-35
2021/12/04 06:11:43;;;;;;;1999.90;999.90;;;;;;;4.67;100.00;98664.19;5092071;28;20071;-34
2021/12/04 06:14:09;;;;;;;1999.90;999.90;;;;;;;4.67;100.00;98664.19;5092416;28;20043;-35
2021/12/04 06:16:35;;;;;;;1999.90;999.90;;;;;;;4.68;100.00;98663.19;5092079;28;20020;-35
2021/12/04 06:19:11;;;;;;;1999.90;999.90;;;;;;;4.67;100.00;98663.38;5091662;28;20028;-35
2021/12/04 06:24:21;;;;;;;1999.90;999.90;;;;;;;4.57;100.00;98677.16;5092342;28;20039;-34
2021/12/04 06:26:47;;;;;;;1999.90;999.90;;;;;;;4.61;100.00;98673.03;5092213;28;20020;-35
2021/12/04 06:29:12;;;;;;;1999.90;999.90;;;;;;;4.60;100.00;98684.63;5092229;28;20492;-35
2021/12/04 06:31:38;;;;;;;1999.90;999.90;;;;;;;4.51;100.00;98683.38;5092239;28;20028;-35
2021/12/04 06:34:04;;;;;;;1999.90;999.90;;;;;;;4.59;100.00;98683.00;5092162;28;20396;-35
2021/12/04 06:36:30;;;;;;;1999.90;999.90;;;;;;;4.51;100.00;98675.44;5091803;28;20507;-35
2021/12/04 06:38:55;;;;;;;1999.90;999.90;;;;;;;4.47;100.00;98676.94;5091881;28;20035;-35
2021/12/04 06:41:22;;;;;;;1999.90;999.90;;;;;;;4.41;100.00;98673.38;5091823;28;20062;-35
2021/12/04 06:43:50;;;;;;;1999.90;999.90;;;;;;;4.29;100.00;98670.72;5092155;28;20552;-33
2021/12/04 06:46:18;;;;;;;1999.90;999.90;;;;;;;4.30;100.00;98667.06;5092050;28;20024;-33
2021/12/04 06:53:47;;;;;;;1999.90;999.90;;;;;;;4.03;100.00;98670.09;5092265;28;20464;-33
2021/12/04 06:56:13;;;;;;;1999.90;999.90;;;;;;;3.98;100.00;98674.47;5091735;28;20024;-33
2021/12/04 06:58:40;;;;;;;1999.90;999.90;;;;;;;3.92;100.00;98673.53;5091710;28;20019;-33
2021/12/04 07:01:07;;;;;;;1999.90;999.90;;;;;;;3.87;100.00;98652.31;5091924;28;20033;-33
2021/12/04 07:03:33;;;;;;;1999.90;999.90;;;;;;;3.81;100.00;98650.56;5091491;28;20028;-34
2021/12/04 07:05:59;;;;;;;;;;;;;;;3.72;100.00;98650.09;5092082;28;20119;-33
2021/12/04 07:08:25;;;;;;;1999.90;999.90;;;;;;;3.72;100.00;98657.19;5091633;28;19956;-34
2021/12/04 07:10:50;;;;;;;1999.90;999.90;;;;;;;3.70;100.00;98653.97;5091756;28;20052;-33
2021/12/04 07:13:17;;;;;;;1999.90;999.90;;;;;;;3.62;100.00;98655.88;5091841;28;20028;-33
2021/12/04 07:15:45;;;;;;;;;;;;;;;3.52;100.00;98652.97;5091972;28;20031;-33
2021/12/04 07:18:11;;;;;;;1999.90;999.90;;;;;;;3.58;100.00;98651.28;5091678;28;19907;-33
2021/12/04 07:20:37;;;;;;;1999.90;999.90;;;;;;;3.50;100.00;98655.84;5091495;28;20458;-34
2021/12/04 07:23:02;;;;;;;1999.90;999.90;;;;;;;3.46;100.00;98649.41;5091770;28;20051;-34
2021/12/04 07:25:28;;;;;;;1999.90;999.90;;;;;;;3.49;100.00;98648.16;5091402;28;20061;-34
2021/12/04 07:27:54;;;;;;;1999.90;999.90;;;;;;;3.45;100.00;98652.28;5091353;28;20036;-34
2021/12/04 07:30:20;;;;;;;1999.90;999.90;;;;;;;3.45;100.00;98654.91;5091357;28;20107;-34
2021/12/04 07:32:46;;;;;;;;;;;;;;;3.43;100.00;98649.06;5094433;28;20024;-34
2021/12/04 07:35:13;;;;;;;1999.90;999.90;;;;;;;3.39;100.00;98648.72;5095331;28;19922;-34
2021/12/04 07:37:38;;;;;;;;;;;;;;;3.40;100.00;98657.41;5095619;28;20433;-34
2021/12/04 07:40:04;;;;;;;1999.90;999.90;;;;;;;3.40;100.00;98645.03;5095209;28;20002;-34
2021/12/04 07:42:30;;;;;;;;;;;;;;;3.37;100.00;98650.75;5095965;28;20062;-34
2021/12/04 07:44:56;;;;;;;1999.90;999.90;;;;;;;3.39;100.00;98643.44;5093575;28;19983;-34
2021/12/04 07:47:21;;;;;;;1999.90;999.90;;;;;;;3.35;100.00;98646.72;5095047;28;20032;-34
2021/12/04 07:49:47;;;;;;;1999.90;999.90;;;;;;;3.40;100.00;98639.78;5094699;28;20017;-34
2021/12/04 07:52:13;;;;;;;1999.90;999.90;;;;;;;3.38;100.00;98649.75;5095164;28;20020;-34
2021/12/04 07:54:39;;;;;;;1999.90;999.90;;;;;;;3.32;100.00;98638.25;5093507;28;20020;-34
2021/12/04 07:57:05;;;;;;;1999.90;999.90;;;;;;;3.33;100.00;98660.94;5094757;28;20054;-34
2021/12/04 07:59:31;;;;;;;1999.90;999.90;;;;;;;3.30;100.00;98655.28;5094549;28;20419;-34
2021/12/04 08:01:58;;;;;;;1999.90;999.90;;;;;;;3.35;100.00;98649.38;5094557;28;20044;-34
2021/12/04 08:04:24;;;;;;;1999.90;999.90;;;;;;;3.33;100.00;98649.59;5094425;28;20165;-34
2021/12/04 08:06:51;;;;;;;1999.90;999.90;;;;;;;3.31;100.00;98655.06;5094701;28;20399;-34
2021/12/04 08:09:17;;;;;;;1999.90;999.90;;;;;;;3.27;100.00;98659.16;5094333;28;20032;-34
2021/12/04 08:11:43;;;;;;;1999.90;999.90;;;;;;;3.28;100.00;98670.53;5094220;28;20036;-34
2021/12/04 08:14:09;;;;;;;1999.90;999.90;;;;;;;3.24;100.00;98672.00;5094470;28;20080;-34
2021/12/04 08:16:35;;;;;;;1999.90;999.90;;;;;;;3.33;100.00;98673.28;5094250;28;20506;-34
2021/12/04 08:19:01;;;;;;;1999.90;999.90;;;;;;;3.33;100.00;98676.75;5094186;28;20032;-33
2021/12/04 08:21:27;;;;;;;1999.90;999.90;;;;;;;3.36;100.00;98674.69;5094224;28;20038;-35
2021/12/04 08:23:53;;;;;;;1999.90;999.90;;;;;;;3.35;100.00;98675.69;5094366;28;20032;-34
2021/12/04 08:26:19;;;;;;;1999.90;999.90;;;;;;;3.43;100.00;98678.81;5093195;28;20113;-34
2021/12/04 08:28:46;;;;;;;1999.90;999.90;;;;;;;3.45;100.00;98684.69;5092769;28;20089;-34
2021/12/04 08:31:13;;;;;;;1999.90;999.90;;;;;;;3.40;100.00;98678.47;5093907;28;20051;-34
2021/12/04 08:33:39;;;;;;;1999.90;999.90;;;;;;;3.45;100.00;98675.97;5094142;28;20027;-34
2021/12/04 08:36:05;;;;;;;1999.90;999.90;;;;;;;3.54;100.00;98672.03;5093840;28;20038;-35
2021/12/04 08:38:32;;;;;;;;;;;;;;;3.47;100.00;98666.84;5094233;28;20024;-35
2021/12/04 08:41:03;;;;;;;1999.90;999.90;;;;;;;3.46;100.00;98674.94;5093744;28;20014;-35
2021/12/04 08:43:29;;;;;;;1999.90;999.90;;;;;;;3.46;100.00;98674.94;5093658;28;20466;-35
2021/12/04 08:45:56;;;;;;;1999.90;999.90;;;;;;;3.50;100.00;98673.50;5093686;28;20032;-35
2021/12/04 08:48:21;;;;;;;;;;;;;;;3.45;100.00;98665.44;5094308;28;20059;-35
2021/12/04 08:50:47;;;;;;;1999.90;999.90;;;;;;;3.45;100.00;98655.72;5093578;28;20371;-35
2021/12/04 08:53:13;;;;;;;1999.90;999.90;;;;;;;3.51;100.00;98656.66;5093578;28;20089;-35
2021/12/04 08:55:40;;;;;;;1999.90;999.90;;;;;;;3.50;100.00;98649.78;5093474;28;20031;-35
2021/12/04 08:58:06;;;;;;;;;;;;;;;3.48;100.00;98647.38;5094115;28;20404;-35
2021/12/04 09:00:54;;;;;;;1999.90;999.90;;;;;;;3.42;100.00;98647.44;5093402;28;19916;-34
2021/12/04 09:03:24;;;;;;;1999.90;999.90;;;;;;;3.47;100.00;98645.75;5093360;28;20529;-35
2021/12/04 09:05:51;;;;;;;1999.90;999.90;;;;;;;3.39;100.00;98635.56;5092068;28;20020;-35
2021/12/04 09:08:19;;;;;;;1999.90;999.90;;;;;;;3.41;100.00;98622.16;5093142;28;20073;-35
2021/12/04 09:10:47;;;;;;;1999.90;999.90;;;;;;;3.42;100.00;98624.56;5092989;28;20020;-35
2021/12/04 09:13:13;;;;;;;1999.90;999.90;;;;;;;3.46;100.00;98630.97;5093090;28;20035;-35
2021/12/04 09:15:41;;;;;;;1999.90;999.90;;;;;;;3.51;100.00;98635.59;5093916;28;20032;-35
2021/12/04 09:18:06;;;;;;;1999.90;999.90;;;;;;;3.35;100.00;98626.47;5093253;28;20032;-35
2021/12/04 09:20:33;;;;;;;1999.90;999.90;;;;;;;3.39;100.00;98625.03;5093307;28;20519;-34
2021/12/04 09:23:00;;;;;;;1999.90;999.90;;;;;;;3.39;100.00;98611.03;5093268;28;20436;-34
2021/12/04 09:25:27;;;;;;;1999.90;999.90;;;;;;;3.35;100.00;98609.84;5092874;28;20027;-35
2021/12/04 09:36:14;;;;;;;1999.90;999.90;;;;;;;3.40;100.00;98615.28;5093355;28;20074;-35
2021/12/04 10:03:16;;;;;;;1999.90;999.90;;;;;;;3.56;100.00;98616.47;5092384;28;20043;-35
2021/12/04 10:22:19;;;;;;;1999.90;999.90;;;;;;;3.58;100.00;98617.03;5092114;28;20024;-34
2021/12/04 10:24:55;;;;;;;1999.90;999.90;;;;;;;3.60;100.00;98613.16;5092326;28;20047;-35
2021/12/04 10:33:13;;;;;;;1999.90;999.90;;;;;;;3.67;100.00;98597.25;5092712;28;20400;-34
2021/12/04 10:35:40;;;;;;;1999.90;999.90;;;;;;;3.61;100.00;98591.06;5092185;28;20032;-34
2021/12/04 10:38:08;;;;;;;;;;;;;;;3.61;100.00;98606.06;5092200;28;20028;-34
2021/12/04 10:40:39;;;;;;;1999.90;999.90;;;;;;;3.63;100.00;98594.28;5091827;28;20361;-34
2021/12/04 10:43:11;;;;;;;1999.90;999.90;;;;;;;3.58;100.00;98604.69;5092071;28;20107;-35
2021/12/04 10:45:44;;;;;;;1999.90;999.90;;;;;;;3.66;100.00;98593.03;5091850;28;20492;-35
2021/12/04 10:48:14;;;;;;;1999.90;999.90;;;;;;;3.65;100.00;98594.84;5091691;28;20029;-34
2021/12/04 10:53:12;;;;;;;1999.90;999.90;;;;;;;3.60;100.00;98605.25;5092037;28;20472;-35
2021/12/04 10:55:51;;;;;;;1999.90;999.90;;;;;;;3.58;100.00;98602.06;5092076;28;20036;-35
2021/12/04 11:43:00;;;;;;;1999.90;999.90;;;;;;;3.77;100.00;98601.97;5095006;28;20043;-35
2021/12/04 11:45:31;;;;;;;1999.90;999.90;;;;;;;3.88;100.00;98601.19;5095253;28;20107;-35
2021/12/04 11:48:01;;;;;;;1999.90;999.90;;;;;;;3.92;100.00;98580.44;5095562;28;20035;-35
2021/12/04 11:50:30;;;;;;;1999.90;999.90;;;;;;;3.85;100.00;98572.66;5093654;28;20103;-35
2021/12/04 11:52:59;;;;;;;1999.90;999.90;;;;;;;3.76;100.00;98579.28;5094955;28;20411;-34
2021/12/04 11:55:27;;;;;;;1999.90;999.90;;;;;;;3.83;100.00;98582.63;5094732;28;20036;-34
2021/12/04 11:57:53;;;;;;;1999.90;999.90;;;;;;;3.94;100.00;98589.75;5094455;28;20031;-35
2021/12/04 12:00:27;;;;;;;1999.90;999.90;;;;;;;3.91;100.00;98587.56;5094792;28;20035;-35
2021/12/04 12:03:07;;;;;;;1999.90;999.90;;;;;;;4.08;100.00;98586.88;5095326;28;20035;-35
2021/12/04 12:05:53;;;;;;;1999.90;999.90;;;;;;;4.11;100.00;98575.88;5094512;28;20065;-35
2021/12/04 12:08:22;;;;;;;1999.90;999.90;;;;;;;4.09;100.00;98570.84;5093087;28;20024;-35
2021/12/04 12:10:50;;;;;;;1999.90;999.90;;;;;;;4.11;100.00;98573.25;5094648;28;20050;-35
2021/12/04 12:13:32;;;;;;;1999.90;999.90;;;;;;;4.17;100.00;98580.22;5094284;28;20177;-35
2021/12/04 12:16:12;;;;;;;1999.90;999.90;;;;;;;4.11;100.00;98570.59;5094669;28;20028;-35
2021/12/04 12:19:01;;;;;;;1999.90;999.90;;;;;;;4.16;100.00;98581.28;5093500;28;20091;-35
2021/12/04 12:21:41;;;;;;;1999.90;999.90;;;;;;;4.10;100.00;98577.72;5094512;28;20054;-35
2021/12/04 12:36:13;;;;;;;1999.90;999.90;;;;;;;3.89;100.00;98594.91;5093994;28;20040;-35
2021/12/04 12:38:57;;;;;;;1999.90;999.90;;;;;;;3.83;100.00;98606.34;5093832;28;20119;-35
2021/12/04 12:41:34;;;;;;;1999.90;999.90;;;;;;;3.76;100.00;98587.19;5093840;28;20399;-35
2021/12/04 12:44:11;;;;;;;1999.90;999.90;;;;;;;3.61;100.00;98583.16;5093762;28;20116;-35
2021/12/04 12:46:44;;;;;;;1999.90;999.90;;;;;;;3.61;100.00;98595.53;5093730;28;20028;-34
2021/12/04 12:49:40;;;;;;;1999.90;999.90;;;;;;;3.53;100.00;98595.84;5093524;28;20032;-34
2021/12/04 12:52:15;;;;;;;1999.90;999.90;;;;;;;3.47;100.00;98584.38;5093037;28;20043;-34
2021/12/04 12:54:45;;;;;;;1999.90;999.90;;;;;;;3.44;100.00;98582.19;5093471;28;20035;-35
2021/12/04 12:57:20;;;;;;;1999.90;999.90;;;;;;;3.43;100.00;98591.13;5094017;28;20400;-34
2021/12/04 13:14:19;;;;;;;1999.90;999.90;;;;;;;3.28;100.00;98597.59;5093551;28;20069;-34
2021/12/04 13:17:09;;;;;;;1999.90;999.90;;;;;;;3.32;100.00;98597.97;5093115;28;20032;-34
2021/12/04 13:19:39;;;;;;;1999.90;999.90;;;;;;;3.31;100.00;98594.50;5092481;28;20104;-34
2021/12/04 13:22:08;;;;;;;1999.90;999.90;;;;;;;3.36;100.00;98590.41;5092960;28;20024;-35
2021/12/04 13:24:36;;;;;;;1999.90;999.90;;;;;;;3.36;100.00;98579.88;5092969;28;20028;-34
2021/12/04 13:29:43;;;;;;;1999.90;999.90;;;;;;;3.45;100.00;98599.59;5092197;28;20036;-34
2021/12/04 13:32:14;;;;;;;1999.90;999.90;;;;;;;3.53;100.00;98612.47;5092801;28;20035;-34
2021/12/04 13:34:42;;;;;;;1999.90;999.90;;;;;;;3.45;100.00;98610.94;5092706;28;20032;-34
2021/12/04 13:37:09;;;;;;;1999.90;999.90;;;;;;;3.43;100.00;98617.47;5092693;28;20036;-33
2021/12/04 13:39:37;;;;;;;1999.90;999.90;;;;;;;3.40;100.00;98620.53;5093220;28;20030;-34
2021/12/04 13:42:04;;;;;;;1999.90;999.90;;;;;;;3.40;100.00;98620.53;5093006;28;20036;-33
2021/12/04 13:44:30;;;;;;;1999.90;999.90;;;;;;;3.44;100.00;98624.34;5092882;28;20403;-34
2021/12/04 13:47:08;;;;;;;1999.90;999.90;;;;;;;3.48;100.00;98631.56;5092914;28;20475;-34
2021/12/04 13:49:40;;;;;;;1999.90;999.90;;;;;;;3.60;100.00;98634.25;5092793;28;20031;-34
2021/12/04 13:52:11;;;;;;;1999.90;999.90;;;;;;;3.46;100.00;98638.88;5092534;28;20137;-34
2021/12/04 13:54:45;;;;;;;1999.90;999.90;;;;;;;3.38;100.00;98644.47;5092419;28;20038;-34
2021/12/04 13:57:13;;;;;;;1999.90;999.90;;;;;;;3.33;100.00;98649.59;5092990;28;20039;-34
2021/12/04 13:59:40;;;;;;;1999.90;999.90;;;;;;;3.32;100.00;98654.06;5092273;28;20517;-34
2021/12/04 14:02:06;;;;;;;1999.90;999.90;;;;;;;3.34;100.00;98653.84;5092306;28;20028;-34
2021/12/04 14:04:32;;;;;;;1999.90;999.90;;;;;;;3.27;100.00;98661.00;5093430;28;20055;-34
2021/12/04 14:07:00;;;;;;;1999.90;999.90;;;;;;;3.16;100.00;98659.94;5092246;28;20492;-34
2021/12/04 14:09:33;;;;;;;1999.90;999.90;;;;;;;3.08;100.00;98668.94;5092107;28;20028;-33
2021/12/04 14:12:00;;;;;;;1999.90;999.90;;;;;;;2.91;100.00;98666.06;5091949;28;20044;-34
2021/12/04 14:14:28;;;;;;;1999.90;999.90;;;;;;;2.96;100.00;98670.69;5092459;28;20380;-34
2021/12/04 14:17:01;;;;;;;1999.90;999.90;;;;;;;2.85;100.00;98666.97;5092108;28;20111;-34
2021/12/04 14:19:28;;;;;;;1999.90;999.90;;;;;;;2.85;100.00;98677.47;5092322;28;20073;-34
2021/12/04 14:22:03;;;;;;;1999.90;999.90;;;;;;;2.76;100.00;98681.41;5092308;28;20383;-33
2021/12/04 14:24:42;;;;;;;1999.90;999.90;;;;;;;2.80;100.00;98686.03;5091974;28;20030;-34
2021/12/04 14:27:10;;;;;;;1999.90;999.90;;;;;;;2.65;100.00;98693.44;5092344;28;20472;-34
2021/12/04 14:29:39;;;;;;;1999.90;999.90;;;;;;;2.62;100.00;98692.06;5092161;28;20034;-34